sensor_id;sensor_type;location;lat;lon;timestamp;temperature;humidity
42479;DHT22;28110;47.080;9.476;2024-03-07T00:01:33;3.90;99.90
42479;DHT22;28110;47.080;9.476;2024-03-07T00:03:59;3.90;99.90
42479;DHT22;28110;47.080;9.476;2024-03-07T00:06:24;3.90;99.90
42479;DHT22;28110;47.080;9.476;2024-03-07T00:08:50;3.90;99.90
42479;DHT22;28110;47.080;9.476;2024-03-07T00:11:15;3.90;99.90
42479;DHT22;28110;47.080;9.476;2024-03-07T00:13:41;3.90;99.90
42479;DHT22;28110;47.080;9.476;2024-03-07T00:16:08;3.90;99.90
42479;DHT22;28110;47.080;9.476;2024-03-07T00:18:35;3.90;99.90
42479;DHT22;28110;47.080;9.476;2024-03-07T00:21:02;3.90;99.90
42479;DHT22;28110;47.080;9.476;2024-03-07T00:23:28;3.90;99.90
42479;DHT22;28110;47.080;9.476;2024-03-07T00:25:54;3.90;99.90
42479;DHT22;28110;47.080;9.476;2024-03-07T00:28:19;3.90;99.90
42479;DHT22;28110;47.080;9.476;2024-03-07T00:30:45;3.90;99.90
42479;DHT22;28110;47.080;9.476;2024-03-07T00:33:13;3.90;99.90
42479;DHT22;28110;47.080;9.476;2024-03-07T00:35:39;3.90;99.90
42479;DHT22;28110;47.080;9.476;2024-03-07T00:38:04;3.90;99.90
42479;DHT22;28110;47.080;9.476;2024-03-07T00:40:32;3.90;99.90
42479;DHT22;28110;47.080;9.476;2024-03-07T00:42:57;3.90;99.90
42479;DHT22;28110;47.080;9.476;2024-03-07T00:45:24;3.90;99.90
42479;DHT22;28110;47.080;9.476;2024-03-07T00:47:50;3.90;99.90
42479;DHT22;28110;47.080;9.476;2024-03-07T00:50:15;3.90;99.90
42479;DHT22;28110;47.080;9.476;2024-03-07T00:52:41;3.90;99.90
42479;DHT22;28110;47.080;9.476;2024-03-07T00:55:07;3.90;99.90
42479;DHT22;28110;47.080;9.476;2024-03-07T00:57:35;3.90;99.90
42479;DHT22;28110;47.080;9.476;2024-03-07T01:00:02;3.80;99.90
42479;DHT22;28110;47.080;9.476;2024-03-07T01:02:28;3.90;99.90
42479;DHT22;28110;47.080;9.476;2024-03-07T01:04:54;3.90;99.90
42479;DHT22;28110;47.080;9.476;2024-03-07T01:07:20;3.80;99.90
42479;DHT22;28110;47.080;9.476;2024-03-07T01:09:46;3.80;99.90
42479;DHT22;28110;47.080;9.476;2024-03-07T01:12:13;3.80;99.90
42479;DHT22;28110;47.080;9.476;2024-03-07T01:14:38;3.80;99.90
42479;DHT22;28110;47.080;9.476;2024-03-07T01:17:04;3.80;99.90
42479;DHT22;28110;47.080;9.476;2024-03-07T01:19:32;3.80;99.90
42479;DHT22;28110;47.080;9.476;2024-03-07T01:21:57;3.80;99.90
42479;DHT22;28110;47.080;9.476;2024-03-07T01:24:23;3.80;99.90
42479;DHT22;28110;47.080;9.476;2024-03-07T01:26:49;3.80;99.90
42479;DHT22;28110;47.080;9.476;2024-03-07T01:29:14;3.80;99.90
42479;DHT22;28110;47.080;9.476;2024-03-07T01:31:40;3.80;99.90
42479;DHT22;28110;47.080;9.476;2024-03-07T01:34:06;3.80;99.90
42479;DHT22;28110;47.080;9.476;2024-03-07T01:36:31;3.80;99.90
42479;DHT22;28110;47.080;9.476;2024-03-07T01:38:57;3.80;99.90
42479;DHT22;28110;47.080;9.476;2024-03-07T01:41:22;3.80;99.90
42479;DHT22;28110;47.080;9.476;2024-03-07T01:43:48;3.80;99.90
42479;DHT22;28110;47.080;9.476;2024-03-07T01:46:14;3.80;99.90
42479;DHT22;28110;47.080;9.476;2024-03-07T01:48:40;3.70;99.90
42479;DHT22;28110;47.080;9.476;2024-03-07T01:51:06;3.80;99.90
42479;DHT22;28110;47.080;9.476;2024-03-07T01:53:33;3.80;99.90
42479;DHT22;28110;47.080;9.476;2024-03-07T01:55:59;3.80;99.90
42479;DHT22;28110;47.080;9.476;2024-03-07T01:58:25;3.80;99.90
42479;DHT22;28110;47.080;9.476;2024-03-07T02:00:51;3.80;99.90
42479;DHT22;28110;47.080;9.476;2024-03-07T02:03:17;3.80;99.90
42479;DHT22;28110;47.080;9.476;2024-03-07T02:05:43;3.80;99.90
42479;DHT22;28110;47.080;9.476;2024-03-07T02:08:08;3.80;99.90
42479;DHT22;28110;47.080;9.476;2024-03-07T02:10:34;3.80;99.90
42479;DHT22;28110;47.080;9.476;2024-03-07T02:13:00;3.70;99.90
42479;DHT22;28110;47.080;9.476;2024-03-07T02:15:28;3.70;99.90
42479;DHT22;28110;47.080;9.476;2024-03-07T02:17:53;3.70;99.90
42479;DHT22;28110;47.080;9.476;2024-03-07T02:26:50;3.60;99.90
42479;DHT22;28110;47.080;9.476;2024-03-07T02:29:16;3.60;99.90
42479;DHT22;28110;47.080;9.476;2024-03-07T02:31:42;3.50;99.90
42479;DHT22;28110;47.080;9.476;2024-03-07T02:34:07;3.50;99.90
42479;DHT22;28110;47.080;9.476;2024-03-07T02:36:33;3.50;99.90
42479;DHT22;28110;47.080;9.476;2024-03-07T02:38:59;3.50;99.90
42479;DHT22;28110;47.080;9.476;2024-03-07T02:41:25;3.50;99.90
42479;DHT22;28110;47.080;9.476;2024-03-07T02:43:51;3.40;99.90
42479;DHT22;28110;47.080;9.476;2024-03-07T02:46:17;3.40;99.90
42479;DHT22;28110;47.080;9.476;2024-03-07T02:48:43;3.30;99.90
42479;DHT22;28110;47.080;9.476;2024-03-07T02:51:09;3.30;99.90
42479;DHT22;28110;47.080;9.476;2024-03-07T02:53:35;3.30;99.90
42479;DHT22;28110;47.080;9.476;2024-03-07T02:56:00;3.30;99.90
42479;DHT22;28110;47.080;9.476;2024-03-07T02:58:26;3.30;99.90
42479;DHT22;28110;47.080;9.476;2024-03-07T03:01:00;3.20;99.90
42479;DHT22;28110;47.080;9.476;2024-03-07T03:03:27;3.20;99.90
42479;DHT22;28110;47.080;9.476;2024-03-07T03:05:52;3.20;99.90
42479;DHT22;28110;47.080;9.476;2024-03-07T03:08:18;3.20;99.90
42479;DHT22;28110;47.080;9.476;2024-03-07T03:10:43;3.20;99.90
42479;DHT22;28110;47.080;9.476;2024-03-07T03:13:09;3.20;99.90
42479;DHT22;28110;47.080;9.476;2024-03-07T03:15:35;3.20;99.90
42479;DHT22;28110;47.080;9.476;2024-03-07T03:18:03;3.20;99.90
42479;DHT22;28110;47.080;9.476;2024-03-07T03:20:31;3.20;99.90
42479;DHT22;28110;47.080;9.476;2024-03-07T03:23:00;3.30;99.90
42479;DHT22;28110;47.080;9.476;2024-03-07T03:25:26;3.20;99.90
42479;DHT22;28110;47.080;9.476;2024-03-07T03:27:51;3.30;99.90
42479;DHT22;28110;47.080;9.476;2024-03-07T03:30:17;3.20;99.90
42479;DHT22;28110;47.080;9.476;2024-03-07T03:32:47;3.20;99.90
42479;DHT22;28110;47.080;9.476;2024-03-07T03:35:14;3.20;99.90
42479;DHT22;28110;47.080;9.476;2024-03-07T03:37:44;3.20;99.90
42479;DHT22;28110;47.080;9.476;2024-03-07T03:40:10;3.20;99.90
42479;DHT22;28110;47.080;9.476;2024-03-07T03:42:37;3.20;99.90
42479;DHT22;28110;47.080;9.476;2024-03-07T03:45:04;3.20;99.90
42479;DHT22;28110;47.080;9.476;2024-03-07T03:47:36;3.10;99.90
42479;DHT22;28110;47.080;9.476;2024-03-07T03:50:06;3.10;99.90
42479;DHT22;28110;47.080;9.476;2024-03-07T03:52:32;3.20;99.90
42479;DHT22;28110;47.080;9.476;2024-03-07T03:55:01;3.20;99.90
42479;DHT22;28110;47.080;9.476;2024-03-07T03:57:28;3.20;99.90
42479;DHT22;28110;47.080;9.476;2024-03-07T03:59:54;3.20;99.90
42479;DHT22;28110;47.080;9.476;2024-03-07T04:02:21;3.20;99.90
42479;DHT22;28110;47.080;9.476;2024-03-07T04:04:48;3.20;99.90
42479;DHT22;28110;47.080;9.476;2024-03-07T04:07:14;3.20;99.90
42479;DHT22;28110;47.080;9.476;2024-03-07T04:09:41;3.20;99.90
42479;DHT22;28110;47.080;9.476;2024-03-07T04:12:07;3.20;99.90
42479;DHT22;28110;47.080;9.476;2024-03-07T04:14:42;3.20;99.90
42479;DHT22;28110;47.080;9.476;2024-03-07T04:17:09;3.20;99.90
42479;DHT22;28110;47.080;9.476;2024-03-07T04:19:41;3.20;99.90
42479;DHT22;28110;47.080;9.476;2024-03-07T04:22:07;3.20;99.90
42479;DHT22;28110;47.080;9.476;2024-03-07T04:24:36;3.30;99.90
42479;DHT22;28110;47.080;9.476;2024-03-07T04:27:03;3.30;99.90
42479;DHT22;28110;47.080;9.476;2024-03-07T04:29:33;3.30;99.90
42479;DHT22;28110;47.080;9.476;2024-03-07T04:32:04;3.20;99.90
42479;DHT22;28110;47.080;9.476;2024-03-07T04:34:30;3.30;99.90
42479;DHT22;28110;47.080;9.476;2024-03-07T04:36:57;3.30;99.90
42479;DHT22;28110;47.080;9.476;2024-03-07T04:39:24;3.30;99.90
42479;DHT22;28110;47.080;9.476;2024-03-07T04:41:59;3.30;99.90
42479;DHT22;28110;47.080;9.476;2024-03-07T04:44:30;3.30;99.90
42479;DHT22;28110;47.080;9.476;2024-03-07T04:46:57;3.20;99.90
42479;DHT22;28110;47.080;9.476;2024-03-07T04:49:23;3.20;99.90
42479;DHT22;28110;47.080;9.476;2024-03-07T04:51:50;3.20;99.90
42479;DHT22;28110;47.080;9.476;2024-03-07T04:54:16;3.20;99.90
42479;DHT22;28110;47.080;9.476;2024-03-07T04:56:41;3.20;99.90
42479;DHT22;28110;47.080;9.476;2024-03-07T04:59:07;3.30;99.90
42479;DHT22;28110;47.080;9.476;2024-03-07T05:01:32;3.20;99.90
42479;DHT22;28110;47.080;9.476;2024-03-07T05:03:58;3.20;99.90
42479;DHT22;28110;47.080;9.476;2024-03-07T05:06:24;3.30;99.90
42479;DHT22;28110;47.080;9.476;2024-03-07T05:08:50;3.30;99.90
42479;DHT22;28110;47.080;9.476;2024-03-07T05:11:15;3.30;99.90
42479;DHT22;28110;47.080;9.476;2024-03-07T05:13:41;3.40;99.90
42479;DHT22;28110;47.080;9.476;2024-03-07T05:16:08;3.30;99.90
42479;DHT22;28110;47.080;9.476;2024-03-07T05:18:33;3.40;99.90
42479;DHT22;28110;47.080;9.476;2024-03-07T05:20:59;3.40;99.90
42479;DHT22;28110;47.080;9.476;2024-03-07T05:23:44;3.40;99.90
42479;DHT22;28110;47.080;9.476;2024-03-07T05:26:10;3.40;99.90
42479;DHT22;28110;47.080;9.476;2024-03-07T05:28:36;3.50;99.90
42479;DHT22;28110;47.080;9.476;2024-03-07T05:31:02;3.40;99.90
42479;DHT22;28110;47.080;9.476;2024-03-07T05:33:29;3.50;99.90
42479;DHT22;28110;47.080;9.476;2024-03-07T05:35:55;3.50;99.90
42479;DHT22;28110;47.080;9.476;2024-03-07T05:38:39;3.50;99.90
42479;DHT22;28110;47.080;9.476;2024-03-07T05:41:04;3.50;99.90
42479;DHT22;28110;47.080;9.476;2024-03-07T05:43:30;3.50;99.90
42479;DHT22;28110;47.080;9.476;2024-03-07T05:45:56;3.50;99.90
42479;DHT22;28110;47.080;9.476;2024-03-07T05:48:22;3.50;99.90
42479;DHT22;28110;47.080;9.476;2024-03-07T05:50:47;3.50;99.90
42479;DHT22;28110;47.080;9.476;2024-03-07T05:53:13;3.50;99.90
42479;DHT22;28110;47.080;9.476;2024-03-07T05:55:38;3.40;99.90
42479;DHT22;28110;47.080;9.476;2024-03-07T05:58:04;3.30;99.90
42479;DHT22;28110;47.080;9.476;2024-03-07T06:00:31;3.40;99.90
42479;DHT22;28110;47.080;9.476;2024-03-07T06:03:00;3.40;99.90
42479;DHT22;28110;47.080;9.476;2024-03-07T06:05:25;3.40;99.90
42479;DHT22;28110;47.080;9.476;2024-03-07T06:07:52;3.50;99.90
42479;DHT22;28110;47.080;9.476;2024-03-07T06:10:17;3.50;99.90
42479;DHT22;28110;47.080;9.476;2024-03-07T06:12:43;3.50;99.90
42479;DHT22;28110;47.080;9.476;2024-03-07T06:15:11;3.50;99.90
42479;DHT22;28110;47.080;9.476;2024-03-07T06:17:37;3.50;99.90
42479;DHT22;28110;47.080;9.476;2024-03-07T06:20:02;3.60;99.90
42479;DHT22;28110;47.080;9.476;2024-03-07T06:22:28;3.60;99.90
42479;DHT22;28110;47.080;9.476;2024-03-07T06:24:54;3.60;99.90
42479;DHT22;28110;47.080;9.476;2024-03-07T06:27:20;3.60;99.90
42479;DHT22;28110;47.080;9.476;2024-03-07T06:30:02;3.60;99.90
42479;DHT22;28110;47.080;9.476;2024-03-07T06:32:28;3.60;99.90
42479;DHT22;28110;47.080;9.476;2024-03-07T06:34:54;3.60;99.90
42479;DHT22;28110;47.080;9.476;2024-03-07T06:37:19;3.60;99.90
42479;DHT22;28110;47.080;9.476;2024-03-07T06:39:45;3.60;99.90
42479;DHT22;28110;47.080;9.476;2024-03-07T06:42:10;3.50;99.90
42479;DHT22;28110;47.080;9.476;2024-03-07T06:44:36;3.60;99.90
42479;DHT22;28110;47.080;9.476;2024-03-07T06:47:01;3.50;99.90
42479;DHT22;28110;47.080;9.476;2024-03-07T06:49:27;3.50;99.90
42479;DHT22;28110;47.080;9.476;2024-03-07T06:51:53;3.50;99.90
42479;DHT22;28110;47.080;9.476;2024-03-07T06:54:19;3.60;99.90
42479;DHT22;28110;47.080;9.476;2024-03-07T06:56:46;3.60;99.90
42479;DHT22;28110;47.080;9.476;2024-03-07T06:59:12;3.60;99.90
42479;DHT22;28110;47.080;9.476;2024-03-07T07:01:39;3.70;99.90
42479;DHT22;28110;47.080;9.476;2024-03-07T07:04:08;3.80;99.90
42479;DHT22;28110;47.080;9.476;2024-03-07T07:06:34;3.70;99.90
42479;DHT22;28110;47.080;9.476;2024-03-07T07:08:59;3.80;99.90
42479;DHT22;28110;47.080;9.476;2024-03-07T07:11:28;3.80;99.90
42479;DHT22;28110;47.080;9.476;2024-03-07T07:13:53;3.80;99.90
42479;DHT22;28110;47.080;9.476;2024-03-07T07:16:19;3.90;99.90
42479;DHT22;28110;47.080;9.476;2024-03-07T07:18:45;3.90;99.90
42479;DHT22;28110;47.080;9.476;2024-03-07T07:21:10;4.00;99.90
42479;DHT22;28110;47.080;9.476;2024-03-07T07:23:38;4.00;99.90
42479;DHT22;28110;47.080;9.476;2024-03-07T07:26:04;4.10;99.90
42479;DHT22;28110;47.080;9.476;2024-03-07T07:28:31;4.00;99.90
42479;DHT22;28110;47.080;9.476;2024-03-07T07:30:56;4.00;99.90
42479;DHT22;28110;47.080;9.476;2024-03-07T07:33:22;4.00;99.90
42479;DHT22;28110;47.080;9.476;2024-03-07T07:35:48;4.10;99.90
42479;DHT22;28110;47.080;9.476;2024-03-07T07:38:13;4.20;99.90
42479;DHT22;28110;47.080;9.476;2024-03-07T07:40:40;4.30;99.90
42479;DHT22;28110;47.080;9.476;2024-03-07T07:43:06;4.40;99.90
42479;DHT22;28110;47.080;9.476;2024-03-07T07:45:32;4.50;99.90
42479;DHT22;28110;47.080;9.476;2024-03-07T07:48:01;4.70;99.90
42479;DHT22;28110;47.080;9.476;2024-03-07T07:50:26;5.00;99.90
42479;DHT22;28110;47.080;9.476;2024-03-07T07:52:55;5.10;99.90
42479;DHT22;28110;47.080;9.476;2024-03-07T07:55:25;5.20;99.90
42479;DHT22;28110;47.080;9.476;2024-03-07T07:57:59;5.30;99.90
42479;DHT22;28110;47.080;9.476;2024-03-07T08:00:26;5.40;99.90
42479;DHT22;28110;47.080;9.476;2024-03-07T08:03:03;5.40;99.90
42479;DHT22;28110;47.080;9.476;2024-03-07T08:05:33;5.40;99.90
42479;DHT22;28110;47.080;9.476;2024-03-07T08:08:01;5.50;99.90
42479;DHT22;28110;47.080;9.476;2024-03-07T08:10:31;5.40;99.90
42479;DHT22;28110;47.080;9.476;2024-03-07T08:12:58;5.40;99.90
42479;DHT22;28110;47.080;9.476;2024-03-07T08:15:25;5.40;99.90
42479;DHT22;28110;47.080;9.476;2024-03-07T08:17:51;5.40;99.90
42479;DHT22;28110;47.080;9.476;2024-03-07T08:20:18;5.40;99.90
42479;DHT22;28110;47.080;9.476;2024-03-07T08:22:47;5.40;99.90
42479;DHT22;28110;47.080;9.476;2024-03-07T08:25:13;5.60;99.90
42479;DHT22;28110;47.080;9.476;2024-03-07T08:27:44;5.70;99.90
42479;DHT22;28110;47.080;9.476;2024-03-07T08:30:11;5.90;99.90
42479;DHT22;28110;47.080;9.476;2024-03-07T08:32:50;6.00;99.90
42479;DHT22;28110;47.080;9.476;2024-03-07T08:35:17;6.10;99.90
42479;DHT22;28110;47.080;9.476;2024-03-07T08:37:45;6.20;99.90
42479;DHT22;28110;47.080;9.476;2024-03-07T08:40:11;6.30;99.90
42479;DHT22;28110;47.080;9.476;2024-03-07T08:42:47;6.40;99.90
42479;DHT22;28110;47.080;9.476;2024-03-07T08:45:12;6.50;99.90
42479;DHT22;28110;47.080;9.476;2024-03-07T08:47:42;6.70;99.90
42479;DHT22;28110;47.080;9.476;2024-03-07T08:50:08;6.80;99.90
42479;DHT22;28110;47.080;9.476;2024-03-07T08:52:35;7.00;99.90
42479;DHT22;28110;47.080;9.476;2024-03-07T08:55:06;7.10;99.90
42479;DHT22;28110;47.080;9.476;2024-03-07T08:57:35;7.20;99.90
42479;DHT22;28110;47.080;9.476;2024-03-07T09:00:02;7.20;99.90
42479;DHT22;28110;47.080;9.476;2024-03-07T09:02:37;7.30;99.90
42479;DHT22;28110;47.080;9.476;2024-03-07T09:05:04;7.40;99.90
42479;DHT22;28110;47.080;9.476;2024-03-07T09:07:30;7.40;99.90
42479;DHT22;28110;47.080;9.476;2024-03-07T09:09:56;7.50;99.90
42479;DHT22;28110;47.080;9.476;2024-03-07T09:12:22;7.60;99.90
42479;DHT22;28110;47.080;9.476;2024-03-07T09:14:53;7.70;99.90
42479;DHT22;28110;47.080;9.476;2024-03-07T09:17:19;7.70;99.90
42479;DHT22;28110;47.080;9.476;2024-03-07T09:19:45;7.80;99.90
42479;DHT22;28110;47.080;9.476;2024-03-07T09:22:11;7.90;99.90
42479;DHT22;28110;47.080;9.476;2024-03-07T09:24:36;7.90;99.90
42479;DHT22;28110;47.080;9.476;2024-03-07T09:27:03;7.90;99.90
42479;DHT22;28110;47.080;9.476;2024-03-07T09:29:29;8.00;99.90
42479;DHT22;28110;47.080;9.476;2024-03-07T09:31:54;8.10;99.90
42479;DHT22;28110;47.080;9.476;2024-03-07T09:34:21;8.10;99.90
42479;DHT22;28110;47.080;9.476;2024-03-07T09:36:47;8.10;99.90
42479;DHT22;28110;47.080;9.476;2024-03-07T09:39:13;8.20;99.90
42479;DHT22;28110;47.080;9.476;2024-03-07T09:41:38;8.20;99.90
42479;DHT22;28110;47.080;9.476;2024-03-07T09:44:14;8.30;99.90
42479;DHT22;28110;47.080;9.476;2024-03-07T09:46:48;8.40;99.90
42479;DHT22;28110;47.080;9.476;2024-03-07T09:49:15;8.40;99.90
42479;DHT22;28110;47.080;9.476;2024-03-07T09:51:42;8.50;99.90
42479;DHT22;28110;47.080;9.476;2024-03-07T09:54:08;8.40;99.90
42479;DHT22;28110;47.080;9.476;2024-03-07T09:56:36;8.50;99.90
42479;DHT22;28110;47.080;9.476;2024-03-07T09:59:03;8.50;99.90
42479;DHT22;28110;47.080;9.476;2024-03-07T10:01:33;8.50;99.90
42479;DHT22;28110;47.080;9.476;2024-03-07T10:04:00;8.40;99.90
42479;DHT22;28110;47.080;9.476;2024-03-07T10:06:35;8.40;99.90
42479;DHT22;28110;47.080;9.476;2024-03-07T10:09:01;8.50;99.90
42479;DHT22;28110;47.080;9.476;2024-03-07T10:11:27;8.50;99.90
42479;DHT22;28110;47.080;9.476;2024-03-07T10:13:53;8.50;99.90
42479;DHT22;28110;47.080;9.476;2024-03-07T10:16:18;8.70;99.90
42479;DHT22;28110;47.080;9.476;2024-03-07T10:18:44;8.70;99.90
42479;DHT22;28110;47.080;9.476;2024-03-07T10:21:13;8.70;99.90
42479;DHT22;28110;47.080;9.476;2024-03-07T10:23:38;8.80;99.90
42479;DHT22;28110;47.080;9.476;2024-03-07T10:26:05;8.80;99.90
42479;DHT22;28110;47.080;9.476;2024-03-07T10:28:32;8.70;99.90
42479;DHT22;28110;47.080;9.476;2024-03-07T10:30:59;8.80;99.90
42479;DHT22;28110;47.080;9.476;2024-03-07T10:33:27;8.70;99.90
42479;DHT22;28110;47.080;9.476;2024-03-07T10:35:53;8.80;99.90
42479;DHT22;28110;47.080;9.476;2024-03-07T10:38:19;8.90;99.90
42479;DHT22;28110;47.080;9.476;2024-03-07T10:40:47;8.90;99.90
42479;DHT22;28110;47.080;9.476;2024-03-07T10:43:19;9.00;99.90
42479;DHT22;28110;47.080;9.476;2024-03-07T10:45:46;9.00;99.90
42479;DHT22;28110;47.080;9.476;2024-03-07T10:48:13;8.90;99.90
42479;DHT22;28110;47.080;9.476;2024-03-07T10:53:17;9.00;99.90
42479;DHT22;28110;47.080;9.476;2024-03-07T10:58:38;9.00;99.90
42479;DHT22;28110;47.080;9.476;2024-03-07T11:01:07;9.00;99.90
42479;DHT22;28110;47.080;9.476;2024-03-07T11:03:36;9.00;99.90
42479;DHT22;28110;47.080;9.476;2024-03-07T11:06:02;9.10;99.90
42479;DHT22;28110;47.080;9.476;2024-03-07T11:08:35;9.10;99.90
42479;DHT22;28110;47.080;9.476;2024-03-07T11:11:01;9.20;99.90
42479;DHT22;28110;47.080;9.476;2024-03-07T11:13:28;9.20;99.90
42479;DHT22;28110;47.080;9.476;2024-03-07T11:15:55;9.20;99.90
42479;DHT22;28110;47.080;9.476;2024-03-07T11:18:24;9.20;99.90
42479;DHT22;28110;47.080;9.476;2024-03-07T11:20:49;9.30;99.90
42479;DHT22;28110;47.080;9.476;2024-03-07T11:26:03;9.30;99.90
42479;DHT22;28110;47.080;9.476;2024-03-07T11:28:33;9.40;99.90
42479;DHT22;28110;47.080;9.476;2024-03-07T11:31:15;9.30;99.90
42479;DHT22;28110;47.080;9.476;2024-03-07T11:33:41;9.20;99.90
42479;DHT22;28110;47.080;9.476;2024-03-07T11:36:11;9.10;99.90
42479;DHT22;28110;47.080;9.476;2024-03-07T11:38:47;9.20;99.90
42479;DHT22;28110;47.080;9.476;2024-03-07T11:41:14;9.20;99.90
42479;DHT22;28110;47.080;9.476;2024-03-07T11:43:40;9.10;99.90
42479;DHT22;28110;47.080;9.476;2024-03-07T11:46:07;9.10;99.90
42479;DHT22;28110;47.080;9.476;2024-03-07T11:48:39;9.10;99.90
42479;DHT22;28110;47.080;9.476;2024-03-07T11:51:07;9.10;99.90
42479;DHT22;28110;47.080;9.476;2024-03-07T11:53:38;9.10;99.90
42479;DHT22;28110;47.080;9.476;2024-03-07T11:56:04;9.20;99.90
42479;DHT22;28110;47.080;9.476;2024-03-07T11:58:37;9.20;99.90
42479;DHT22;28110;47.080;9.476;2024-03-07T12:01:06;9.20;99.90
42479;DHT22;28110;47.080;9.476;2024-03-07T12:03:36;9.20;99.90
42479;DHT22;28110;47.080;9.476;2024-03-07T12:06:03;9.30;99.90
42479;DHT22;28110;47.080;9.476;2024-03-07T12:08:28;9.20;99.90
42479;DHT22;28110;47.080;9.476;2024-03-07T12:10:55;9.20;99.90
42479;DHT22;28110;47.080;9.476;2024-03-07T12:13:22;9.20;99.90
42479;DHT22;28110;47.080;9.476;2024-03-07T12:15:48;9.30;99.90
42479;DHT22;28110;47.080;9.476;2024-03-07T12:18:17;9.30;99.90
42479;DHT22;28110;47.080;9.476;2024-03-07T12:20:44;9.30;99.90
42479;DHT22;28110;47.080;9.476;2024-03-07T12:23:19;9.30;99.90
42479;DHT22;28110;47.080;9.476;2024-03-07T12:25:45;9.20;99.90
42479;DHT22;28110;47.080;9.476;2024-03-07T12:28:14;9.30;99.90
42479;DHT22;28110;47.080;9.476;2024-03-07T12:33:12;9.30;99.90
42479;DHT22;28110;47.080;9.476;2024-03-07T12:35:39;9.30;99.90
42479;DHT22;28110;47.080;9.476;2024-03-07T12:38:08;9.30;99.90
42479;DHT22;28110;47.080;9.476;2024-03-07T12:40:36;9.30;99.90
42479;DHT22;28110;47.080;9.476;2024-03-07T12:43:21;9.30;99.90
42479;DHT22;28110;47.080;9.476;2024-03-07T12:45:51;9.30;99.90
42479;DHT22;28110;47.080;9.476;2024-03-07T12:48:20;9.30;99.90
42479;DHT22;28110;47.080;9.476;2024-03-07T12:50:49;9.40;99.90
42479;DHT22;28110;47.080;9.476;2024-03-07T12:53:22;9.30;99.90
42479;DHT22;28110;47.080;9.476;2024-03-07T12:55:48;9.30;99.90
42479;DHT22;28110;47.080;9.476;2024-03-07T12:58:14;9.30;99.90
42479;DHT22;28110;47.080;9.476;2024-03-07T13:00:41;9.30;99.90
42479;DHT22;28110;47.080;9.476;2024-03-07T13:03:08;9.20;99.90
42479;DHT22;28110;47.080;9.476;2024-03-07T13:05:37;9.30;99.90
42479;DHT22;28110;47.080;9.476;2024-03-07T13:08:07;9.30;99.90
42479;DHT22;28110;47.080;9.476;2024-03-07T13:10:42;9.20;99.90
42479;DHT22;28110;47.080;9.476;2024-03-07T13:13:08;9.20;99.90
42479;DHT22;28110;47.080;9.476;2024-03-07T13:15:37;9.30;99.90
42479;DHT22;28110;47.080;9.476;2024-03-07T13:18:04;9.30;99.90
42479;DHT22;28110;47.080;9.476;2024-03-07T13:20:30;9.40;99.90
42479;DHT22;28110;47.080;9.476;2024-03-07T13:22:56;9.40;99.90
42479;DHT22;28110;47.080;9.476;2024-03-07T13:25:25;9.40;99.90
42479;DHT22;28110;47.080;9.476;2024-03-07T13:28:02;9.40;99.90
42479;DHT22;28110;47.080;9.476;2024-03-07T13:30:30;9.40;99.90
42479;DHT22;28110;47.080;9.476;2024-03-07T13:32:56;9.40;99.90
42479;DHT22;28110;47.080;9.476;2024-03-07T13:35:23;9.40;99.90
42479;DHT22;28110;47.080;9.476;2024-03-07T13:37:50;9.30;99.90
42479;DHT22;28110;47.080;9.476;2024-03-07T13:40:16;9.30;99.90
42479;DHT22;28110;47.080;9.476;2024-03-07T13:42:57;9.30;99.90
42479;DHT22;28110;47.080;9.476;2024-03-07T13:45:35;9.20;99.90
42479;DHT22;28110;47.080;9.476;2024-03-07T13:48:08;9.20;99.90
42479;DHT22;28110;47.080;9.476;2024-03-07T13:50:36;9.10;99.90
42479;DHT22;28110;47.080;9.476;2024-03-07T13:53:03;9.20;99.90
42479;DHT22;28110;47.080;9.476;2024-03-07T13:56:04;9.10;99.90
42479;DHT22;28110;47.080;9.476;2024-03-07T13:59:15;9.10;99.90
42479;DHT22;28110;47.080;9.476;2024-03-07T14:22:04;9.00;99.90
42479;DHT22;28110;47.080;9.476;2024-03-07T14:27:38;8.80;99.90
42479;DHT22;28110;47.080;9.476;2024-03-07T14:30:19;8.80;99.90
42479;DHT22;28110;47.080;9.476;2024-03-07T14:32:50;8.60;99.90
42479;DHT22;28110;47.080;9.476;2024-03-07T14:40:39;8.50;99.90
42479;DHT22;28110;47.080;9.476;2024-03-07T14:43:05;8.50;99.90
42479;DHT22;28110;47.080;9.476;2024-03-07T14:45:39;8.40;99.90
42479;DHT22;28110;47.080;9.476;2024-03-07T14:48:06;8.40;99.90
42479;DHT22;28110;47.080;9.476;2024-03-07T14:50:36;8.40;99.90
42479;DHT22;28110;47.080;9.476;2024-03-07T14:53:03;8.30;99.90
42479;DHT22;28110;47.080;9.476;2024-03-07T14:55:31;8.30;99.90
42479;DHT22;28110;47.080;9.476;2024-03-07T14:57:58;8.30;99.90
42479;DHT22;28110;47.080;9.476;2024-03-07T15:00:23;8.20;99.90
42479;DHT22;28110;47.080;9.476;2024-03-07T15:02:53;8.30;99.90
42479;DHT22;28110;47.080;9.476;2024-03-07T15:05:23;8.30;99.90
42479;DHT22;28110;47.080;9.476;2024-03-07T15:07:50;8.30;99.90
42479;DHT22;28110;47.080;9.476;2024-03-07T15:10:19;8.20;99.90
42479;DHT22;28110;47.080;9.476;2024-03-07T15:12:47;8.20;99.90
42479;DHT22;28110;47.080;9.476;2024-03-07T15:15:14;8.20;99.90
42479;DHT22;28110;47.080;9.476;2024-03-07T15:17:42;8.20;99.90
42479;DHT22;28110;47.080;9.476;2024-03-07T15:20:09;8.20;99.90
42479;DHT22;28110;47.080;9.476;2024-03-07T15:22:41;8.20;99.90
42479;DHT22;28110;47.080;9.476;2024-03-07T15:25:12;8.20;99.90
42479;DHT22;28110;47.080;9.476;2024-03-07T15:27:41;8.20;99.90
42479;DHT22;28110;47.080;9.476;2024-03-07T15:30:07;8.20;99.90
42479;DHT22;28110;47.080;9.476;2024-03-07T15:32:42;8.30;99.90
42479;DHT22;28110;47.080;9.476;2024-03-07T15:35:13;8.20;99.90
42479;DHT22;28110;47.080;9.476;2024-03-07T15:37:49;8.20;99.90
42479;DHT22;28110;47.080;9.476;2024-03-07T15:40:16;8.20;99.90
42479;DHT22;28110;47.080;9.476;2024-03-07T15:42:45;8.10;99.90
42479;DHT22;28110;47.080;9.476;2024-03-07T15:45:16;8.10;99.90
42479;DHT22;28110;47.080;9.476;2024-03-07T15:47:52;8.00;99.90
42479;DHT22;28110;47.080;9.476;2024-03-07T15:50:18;8.00;99.90
42479;DHT22;28110;47.080;9.476;2024-03-07T15:52:49;7.90;99.90
42479;DHT22;28110;47.080;9.476;2024-03-07T15:55:17;7.90;99.90
42479;DHT22;28110;47.080;9.476;2024-03-07T15:57:50;7.90;99.90
42479;DHT22;28110;47.080;9.476;2024-03-07T16:00:19;7.90;99.90
42479;DHT22;28110;47.080;9.476;2024-03-07T16:03:02;7.80;99.90
42479;DHT22;28110;47.080;9.476;2024-03-07T16:05:32;7.80;99.90
42479;DHT22;28110;47.080;9.476;2024-03-07T16:08:03;7.80;99.90
42479;DHT22;28110;47.080;9.476;2024-03-07T16:10:33;7.80;99.90
42479;DHT22;28110;47.080;9.476;2024-03-07T16:13:00;7.70;99.90
42479;DHT22;28110;47.080;9.476;2024-03-07T16:15:27;7.70;99.90
42479;DHT22;28110;47.080;9.476;2024-03-07T16:17:54;7.70;99.90
42479;DHT22;28110;47.080;9.476;2024-03-07T16:20:21;7.60;99.90
42479;DHT22;28110;47.080;9.476;2024-03-07T16:22:48;7.60;99.90
42479;DHT22;28110;47.080;9.476;2024-03-07T16:25:15;7.60;99.90
42479;DHT22;28110;47.080;9.476;2024-03-07T16:27:44;7.60;99.90
42479;DHT22;28110;47.080;9.476;2024-03-07T16:30:16;7.50;99.90
42479;DHT22;28110;47.080;9.476;2024-03-07T16:32:43;7.50;99.90
42479;DHT22;28110;47.080;9.476;2024-03-07T16:35:13;7.50;99.90